sensor_id;sensor_type;location;lat;lon;timestamp;temperature;humidity
18779;DHT22;9518;51.720;14.384;2024-02-15T00:00:01;9.30;99.90
18779;DHT22;9518;51.720;14.384;2024-02-15T00:02:29;9.30;99.90
18779;DHT22;9518;51.720;14.384;2024-02-15T00:04:57;9.30;99.90
18779;DHT22;9518;51.720;14.384;2024-02-15T00:07:24;9.30;99.90
18779;DHT22;9518;51.720;14.384;2024-02-15T00:09:52;9.30;99.90
18779;DHT22;9518;51.720;14.384;2024-02-15T00:12:20;9.30;99.90
18779;DHT22;9518;51.720;14.384;2024-02-15T00:14:50;9.20;99.90
18779;DHT22;9518;51.720;14.384;2024-02-15T00:17:17;9.20;99.90
18779;DHT22;9518;51.720;14.384;2024-02-15T00:19:44;9.30;99.90
18779;DHT22;9518;51.720;14.384;2024-02-15T00:22:12;9.30;99.90
18779;DHT22;9518;51.720;14.384;2024-02-15T00:24:39;9.30;99.90
18779;DHT22;9518;51.720;14.384;2024-02-15T00:27:07;9.30;99.90
18779;DHT22;9518;51.720;14.384;2024-02-15T00:29:34;9.40;99.90
18779;DHT22;9518;51.720;14.384;2024-02-15T00:32:03;9.40;99.90
18779;DHT22;9518;51.720;14.384;2024-02-15T00:34:31;9.40;99.90
18779;DHT22;9518;51.720;14.384;2024-02-15T00:37:00;9.40;99.90
18779;DHT22;9518;51.720;14.384;2024-02-15T00:39:27;9.40;99.90
18779;DHT22;9518;51.720;14.384;2024-02-15T00:41:54;9.40;99.90
18779;DHT22;9518;51.720;14.384;2024-02-15T00:44:21;9.30;99.90
18779;DHT22;9518;51.720;14.384;2024-02-15T00:46:48;9.30;99.90
18779;DHT22;9518;51.720;14.384;2024-02-15T00:49:16;9.30;99.90
18779;DHT22;9518;51.720;14.384;2024-02-15T00:51:46;9.30;99.90
18779;DHT22;9518;51.720;14.384;2024-02-15T00:54:14;9.30;99.90
18779;DHT22;9518;51.720;14.384;2024-02-15T00:56:41;9.30;99.90
18779;DHT22;9518;51.720;14.384;2024-02-15T00:59:08;9.30;99.90
18779;DHT22;9518;51.720;14.384;2024-02-15T01:01:36;9.30;99.90
18779;DHT22;9518;51.720;14.384;2024-02-15T01:04:04;9.20;99.90
18779;DHT22;9518;51.720;14.384;2024-02-15T01:06:33;9.20;99.90
18779;DHT22;9518;51.720;14.384;2024-02-15T01:09:00;9.20;99.90
18779;DHT22;9518;51.720;14.384;2024-02-15T01:11:29;9.20;99.90
18779;DHT22;9518;51.720;14.384;2024-02-15T01:13:57;9.10;99.90
18779;DHT22;9518;51.720;14.384;2024-02-15T01:16:24;9.10;99.90
18779;DHT22;9518;51.720;14.384;2024-02-15T01:18:51;9.00;99.90
18779;DHT22;9518;51.720;14.384;2024-02-15T01:21:18;9.00;99.90
18779;DHT22;9518;51.720;14.384;2024-02-15T01:23:47;9.00;99.90
18779;DHT22;9518;51.720;14.384;2024-02-15T01:26:14;9.00;99.90
18779;DHT22;9518;51.720;14.384;2024-02-15T01:28:41;9.00;99.90
18779;DHT22;9518;51.720;14.384;2024-02-15T01:31:09;9.00;99.90
18779;DHT22;9518;51.720;14.384;2024-02-15T01:33:37;9.00;99.90
18779;DHT22;9518;51.720;14.384;2024-02-15T01:36:05;9.00;99.90
18779;DHT22;9518;51.720;14.384;2024-02-15T01:38:32;9.10;99.90
18779;DHT22;9518;51.720;14.384;2024-02-15T01:41:00;9.10;99.90
18779;DHT22;9518;51.720;14.384;2024-02-15T01:43:28;9.10;99.90
18779;DHT22;9518;51.720;14.384;2024-02-15T01:45:55;9.10;99.90
18779;DHT22;9518;51.720;14.384;2024-02-15T01:48:27;9.10;99.90
18779;DHT22;9518;51.720;14.384;2024-02-15T01:50:57;9.20;99.90
18779;DHT22;9518;51.720;14.384;2024-02-15T01:53:25;9.20;99.90
18779;DHT22;9518;51.720;14.384;2024-02-15T01:55:53;9.30;99.90
18779;DHT22;9518;51.720;14.384;2024-02-15T01:58:25;9.30;99.90
18779;DHT22;9518;51.720;14.384;2024-02-15T02:00:53;9.20;99.90
18779;DHT22;9518;51.720;14.384;2024-02-15T02:03:21;9.20;99.90
18779;DHT22;9518;51.720;14.384;2024-02-15T02:05:48;9.30;99.90
18779;DHT22;9518;51.720;14.384;2024-02-15T02:08:24;9.40;99.90
18779;DHT22;9518;51.720;14.384;2024-02-15T02:10:52;9.40;99.90
18779;DHT22;9518;51.720;14.384;2024-02-15T02:13:19;9.50;99.90
18779;DHT22;9518;51.720;14.384;2024-02-15T02:15:47;9.50;99.90
18779;DHT22;9518;51.720;14.384;2024-02-15T02:18:15;9.50;99.90
18779;DHT22;9518;51.720;14.384;2024-02-15T02:20:42;9.50;99.90
18779;DHT22;9518;51.720;14.384;2024-02-15T02:23:13;9.50;99.90
18779;DHT22;9518;51.720;14.384;2024-02-15T02:25:42;9.60;99.90
18779;DHT22;9518;51.720;14.384;2024-02-15T02:28:12;9.60;99.90
18779;DHT22;9518;51.720;14.384;2024-02-15T02:30:41;9.60;99.90
18779;DHT22;9518;51.720;14.384;2024-02-15T02:33:11;9.60;99.90
18779;DHT22;9518;51.720;14.384;2024-02-15T02:35:44;9.70;99.90
18779;DHT22;9518;51.720;14.384;2024-02-15T02:38:13;9.70;99.90
18779;DHT22;9518;51.720;14.384;2024-02-15T02:40:42;9.70;99.90
18779;DHT22;9518;51.720;14.384;2024-02-15T02:43:10;9.80;99.90
18779;DHT22;9518;51.720;14.384;2024-02-15T02:45:39;9.80;99.90
18779;DHT22;9518;51.720;14.384;2024-02-15T02:48:12;9.80;99.90
18779;DHT22;9518;51.720;14.384;2024-02-15T02:50:40;9.80;99.90
18779;DHT22;9518;51.720;14.384;2024-02-15T02:53:07;9.80;99.90
18779;DHT22;9518;51.720;14.384;2024-02-15T02:55:36;9.80;99.90
18779;DHT22;9518;51.720;14.384;2024-02-15T02:58:05;9.80;99.90
18779;DHT22;9518;51.720;14.384;2024-02-15T03:00:33;9.80;99.90
18779;DHT22;9518;51.720;14.384;2024-02-15T03:03:01;9.80;99.90
18779;DHT22;9518;51.720;14.384;2024-02-15T03:05:28;9.80;99.90
18779;DHT22;9518;51.720;14.384;2024-02-15T03:07:55;9.80;99.90
18779;DHT22;9518;51.720;14.384;2024-02-15T03:10:22;9.80;99.90
18779;DHT22;9518;51.720;14.384;2024-02-15T03:12:51;9.90;99.90
18779;DHT22;9518;51.720;14.384;2024-02-15T03:15:20;9.80;99.90
18779;DHT22;9518;51.720;14.384;2024-02-15T03:17:48;9.80;99.90
18779;DHT22;9518;51.720;14.384;2024-02-15T03:20:15;9.80;99.90
18779;DHT22;9518;51.720;14.384;2024-02-15T03:22:51;9.80;99.90
18779;DHT22;9518;51.720;14.384;2024-02-15T03:25:19;9.80;99.90
18779;DHT22;9518;51.720;14.384;2024-02-15T03:27:49;9.80;99.90
18779;DHT22;9518;51.720;14.384;2024-02-15T03:30:19;9.70;99.90
18779;DHT22;9518;51.720;14.384;2024-02-15T03:32:47;9.80;99.90
18779;DHT22;9518;51.720;14.384;2024-02-15T03:35:14;9.80;99.90
18779;DHT22;9518;51.720;14.384;2024-02-15T03:37:41;9.70;99.90
18779;DHT22;9518;51.720;14.384;2024-02-15T03:40:09;9.70;99.90
18779;DHT22;9518;51.720;14.384;2024-02-15T03:42:36;9.70;99.90
18779;DHT22;9518;51.720;14.384;2024-02-15T03:45:04;9.60;99.90
18779;DHT22;9518;51.720;14.384;2024-02-15T03:47:33;9.60;99.90
18779;DHT22;9518;51.720;14.384;2024-02-15T03:50:01;9.50;99.90
18779;DHT22;9518;51.720;14.384;2024-02-15T03:52:29;9.50;99.90
18779;DHT22;9518;51.720;14.384;2024-02-15T03:54:56;9.40;99.90
18779;DHT22;9518;51.720;14.384;2024-02-15T03:57:23;9.30;99.90
18779;DHT22;9518;51.720;14.384;2024-02-15T03:59:50;9.30;99.90
18779;DHT22;9518;51.720;14.384;2024-02-15T04:02:18;9.30;99.90
18779;DHT22;9518;51.720;14.384;2024-02-15T04:04:46;9.30;99.90
18779;DHT22;9518;51.720;14.384;2024-02-15T04:07:14;9.30;99.90
18779;DHT22;9518;51.720;14.384;2024-02-15T04:09:42;9.30;99.90
18779;DHT22;9518;51.720;14.384;2024-02-15T04:12:09;9.30;99.90
18779;DHT22;9518;51.720;14.384;2024-02-15T04:14:36;9.30;99.90
18779;DHT22;9518;51.720;14.384;2024-02-15T04:17:04;9.20;99.90
18779;DHT22;9518;51.720;14.384;2024-02-15T04:19:31;9.20;99.90
18779;DHT22;9518;51.720;14.384;2024-02-15T04:22:00;9.20;99.90
18779;DHT22;9518;51.720;14.384;2024-02-15T04:24:30;9.20;99.90
18779;DHT22;9518;51.720;14.384;2024-02-15T04:26:57;9.20;99.90
18779;DHT22;9518;51.720;14.384;2024-02-15T04:29:24;9.20;99.90
18779;DHT22;9518;51.720;14.384;2024-02-15T04:31:51;9.20;99.90
18779;DHT22;9518;51.720;14.384;2024-02-15T04:34:20;9.30;99.90
18779;DHT22;9518;51.720;14.384;2024-02-15T04:36:48;9.30;99.90
18779;DHT22;9518;51.720;14.384;2024-02-15T04:39:20;9.30;99.90
18779;DHT22;9518;51.720;14.384;2024-02-15T04:41:50;9.20;99.90
18779;DHT22;9518;51.720;14.384;2024-02-15T04:44:17;9.20;99.90
18779;DHT22;9518;51.720;14.384;2024-02-15T04:46:45;9.20;99.90
18779;DHT22;9518;51.720;14.384;2024-02-15T04:49:13;9.20;99.90
18779;DHT22;9518;51.720;14.384;2024-02-15T04:51:40;9.20;99.90
18779;DHT22;9518;51.720;14.384;2024-02-15T04:54:09;9.20;99.90
18779;DHT22;9518;51.720;14.384;2024-02-15T04:56:42;9.20;99.90
18779;DHT22;9518;51.720;14.384;2024-02-15T04:59:10;9.20;99.90
18779;DHT22;9518;51.720;14.384;2024-02-15T05:01:41;9.20;99.90
18779;DHT22;9518;51.720;14.384;2024-02-15T05:04:09;9.20;99.90
18779;DHT22;9518;51.720;14.384;2024-02-15T05:06:37;9.20;99.90
18779;DHT22;9518;51.720;14.384;2024-02-15T05:09:04;9.20;99.90
18779;DHT22;9518;51.720;14.384;2024-02-15T05:11:33;9.20;99.90
18779;DHT22;9518;51.720;14.384;2024-02-15T05:14:03;9.20;99.90
18779;DHT22;9518;51.720;14.384;2024-02-15T05:16:32;9.20;99.90
18779;DHT22;9518;51.720;14.384;2024-02-15T05:18:59;9.20;99.90
18779;DHT22;9518;51.720;14.384;2024-02-15T05:21:26;9.20;99.90
18779;DHT22;9518;51.720;14.384;2024-02-15T05:23:53;9.20;99.90
18779;DHT22;9518;51.720;14.384;2024-02-15T05:26:22;9.10;99.90
18779;DHT22;9518;51.720;14.384;2024-02-15T05:28:49;9.20;99.90
18779;DHT22;9518;51.720;14.384;2024-02-15T05:31:19;9.20;99.90
18779;DHT22;9518;51.720;14.384;2024-02-15T05:33:51;9.20;99.90
18779;DHT22;9518;51.720;14.384;2024-02-15T05:36:19;9.20;99.90
18779;DHT22;9518;51.720;14.384;2024-02-15T05:38:48;9.20;99.90
18779;DHT22;9518;51.720;14.384;2024-02-15T05:41:15;9.20;99.90
18779;DHT22;9518;51.720;14.384;2024-02-15T05:43:42;9.20;99.90
18779;DHT22;9518;51.720;14.384;2024-02-15T05:46:10;9.20;99.90
18779;DHT22;9518;51.720;14.384;2024-02-15T05:48:40;9.20;99.90
18779;DHT22;9518;51.720;14.384;2024-02-15T05:51:07;9.30;99.90
18779;DHT22;9518;51.720;14.384;2024-02-15T05:53:35;9.20;99.90
18779;DHT22;9518;51.720;14.384;2024-02-15T05:56:04;9.20;99.90
18779;DHT22;9518;51.720;14.384;2024-02-15T05:58:33;9.20;99.90
18779;DHT22;9518;51.720;14.384;2024-02-15T06:01:02;9.20;99.90
18779;DHT22;9518;51.720;14.384;2024-02-15T06:03:33;9.20;99.90
18779;DHT22;9518;51.720;14.384;2024-02-15T06:06:05;9.20;99.90
18779;DHT22;9518;51.720;14.384;2024-02-15T06:08:33;9.30;99.90
18779;DHT22;9518;51.720;14.384;2024-02-15T06:11:01;9.20;99.90
18779;DHT22;9518;51.720;14.384;2024-02-15T06:13:29;9.30;99.90
18779;DHT22;9518;51.720;14.384;2024-02-15T06:15:56;9.20;99.90
18779;DHT22;9518;51.720;14.384;2024-02-15T06:18:25;9.30;99.90
18779;DHT22;9518;51.720;14.384;2024-02-15T06:20:55;9.30;99.90
18779;DHT22;9518;51.720;14.384;2024-02-15T06:23:26;9.30;99.90
18779;DHT22;9518;51.720;14.384;2024-02-15T06:25:54;9.30;99.90
18779;DHT22;9518;51.720;14.384;2024-02-15T06:28:22;9.30;99.90
18779;DHT22;9518;51.720;14.384;2024-02-15T06:31:03;9.30;99.90
18779;DHT22;9518;51.720;14.384;2024-02-15T06:33:47;9.30;99.90
18779;DHT22;9518;51.720;14.384;2024-02-15T06:36:32;9.30;99.90
18779;DHT22;9518;51.720;14.384;2024-02-15T06:39:18;9.30;99.90
18779;DHT22;9518;51.720;14.384;2024-02-15T06:42:02;9.30;99.90
18779;DHT22;9518;51.720;14.384;2024-02-15T06:44:29;9.30;99.90
18779;DHT22;9518;51.720;14.384;2024-02-15T06:46:56;9.30;99.90
18779;DHT22;9518;51.720;14.384;2024-02-15T06:49:23;9.40;99.90
18779;DHT22;9518;51.720;14.384;2024-02-15T06:51:51;9.40;99.90
18779;DHT22;9518;51.720;14.384;2024-02-15T06:54:21;9.40;99.90
18779;DHT22;9518;51.720;14.384;2024-02-15T06:56:49;9.40;99.90
18779;DHT22;9518;51.720;14.384;2024-02-15T06:59:17;9.40;99.90
18779;DHT22;9518;51.720;14.384;2024-02-15T07:01:45;9.40;99.90
18779;DHT22;9518;51.720;14.384;2024-02-15T07:04:13;9.40;99.90
18779;DHT22;9518;51.720;14.384;2024-02-15T07:06:40;9.40;99.90
18779;DHT22;9518;51.720;14.384;2024-02-15T07:09:10;9.50;99.90
18779;DHT22;9518;51.720;14.384;2024-02-15T07:11:39;9.50;99.90
18779;DHT22;9518;51.720;14.384;2024-02-15T07:14:06;9.50;99.90
18779;DHT22;9518;51.720;14.384;2024-02-15T07:16:36;9.60;99.90
18779;DHT22;9518;51.720;14.384;2024-02-15T07:19:05;9.60;99.90
18779;DHT22;9518;51.720;14.384;2024-02-15T07:21:34;9.60;99.90
18779;DHT22;9518;51.720;14.384;2024-02-15T07:24:04;9.70;99.90
18779;DHT22;9518;51.720;14.384;2024-02-15T07:26:33;9.70;99.90
18779;DHT22;9518;51.720;14.384;2024-02-15T07:29:03;9.80;99.90
18779;DHT22;9518;51.720;14.384;2024-02-15T07:31:40;9.80;99.90
18779;DHT22;9518;51.720;14.384;2024-02-15T07:34:08;9.90;99.90
18779;DHT22;9518;51.720;14.384;2024-02-15T07:36:35;9.90;99.90
18779;DHT22;9518;51.720;14.384;2024-02-15T07:39:04;9.90;99.90
18779;DHT22;9518;51.720;14.384;2024-02-15T07:41:32;9.90;99.90
18779;DHT22;9518;51.720;14.384;2024-02-15T07:43:59;10.00;99.90
18779;DHT22;9518;51.720;14.384;2024-02-15T07:46:28;10.10;99.90
18779;DHT22;9518;51.720;14.384;2024-02-15T07:48:56;10.10;99.90
18779;DHT22;9518;51.720;14.384;2024-02-15T07:51:24;10.20;99.90
18779;DHT22;9518;51.720;14.384;2024-02-15T07:53:53;10.20;99.90
18779;DHT22;9518;51.720;14.384;2024-02-15T07:56:20;10.20;99.90
18779;DHT22;9518;51.720;14.384;2024-02-15T07:58:48;10.20;99.90
18779;DHT22;9518;51.720;14.384;2024-02-15T08:01:17;10.20;99.90
18779;DHT22;9518;51.720;14.384;2024-02-15T08:03:48;10.30;99.90
18779;DHT22;9518;51.720;14.384;2024-02-15T08:06:16;10.40;99.90
18779;DHT22;9518;51.720;14.384;2024-02-15T08:08:44;10.30;99.90
18779;DHT22;9518;51.720;14.384;2024-02-15T08:11:12;10.40;99.90
18779;DHT22;9518;51.720;14.384;2024-02-15T08:13:43;10.40;99.90
18779;DHT22;9518;51.720;14.384;2024-02-15T08:16:13;10.50;99.90
18779;DHT22;9518;51.720;14.384;2024-02-15T08:18:41;10.50;99.90
18779;DHT22;9518;51.720;14.384;2024-02-15T08:21:10;10.60;99.90
18779;DHT22;9518;51.720;14.384;2024-02-15T08:23:37;10.70;99.90
18779;DHT22;9518;51.720;14.384;2024-02-15T08:26:05;10.80;99.90
18779;DHT22;9518;51.720;14.384;2024-02-15T08:28:36;10.80;99.90
18779;DHT22;9518;51.720;14.384;2024-02-15T08:31:04;10.70;99.90
18779;DHT22;9518;51.720;14.384;2024-02-15T08:33:33;10.80;99.90
18779;DHT22;9518;51.720;14.384;2024-02-15T08:36:01;10.80;99.90
18779;DHT22;9518;51.720;14.384;2024-02-15T08:38:31;10.80;99.90
18779;DHT22;9518;51.720;14.384;2024-02-15T08:40:59;10.90;99.90
18779;DHT22;9518;51.720;14.384;2024-02-15T08:43:26;11.00;99.90
18779;DHT22;9518;51.720;14.384;2024-02-15T08:45:53;11.00;99.90
18779;DHT22;9518;51.720;14.384;2024-02-15T08:48:20;11.00;99.90
18779;DHT22;9518;51.720;14.384;2024-02-15T08:50:48;11.10;99.90
18779;DHT22;9518;51.720;14.384;2024-02-15T08:53:15;11.20;99.90
18779;DHT22;9518;51.720;14.384;2024-02-15T08:55:49;11.30;99.90
18779;DHT22;9518;51.720;14.384;2024-02-15T08:58:19;11.20;99.90
18779;DHT22;9518;51.720;14.384;2024-02-15T09:00:47;11.20;99.90
18779;DHT22;9518;51.720;14.384;2024-02-15T09:03:14;11.30;99.90
18779;DHT22;9518;51.720;14.384;2024-02-15T09:05:41;11.50;99.90
18779;DHT22;9518;51.720;14.384;2024-02-15T09:08:09;11.70;99.90
18779;DHT22;9518;51.720;14.384;2024-02-15T09:10:37;12.00;99.90
18779;DHT22;9518;51.720;14.384;2024-02-15T09:13:06;12.10;99.90
18779;DHT22;9518;51.720;14.384;2024-02-15T09:15:34;12.30;99.90
18779;DHT22;9518;51.720;14.384;2024-02-15T09:18:01;12.40;99.90
18779;DHT22;9518;51.720;14.384;2024-02-15T09:20:28;12.50;99.90
18779;DHT22;9518;51.720;14.384;2024-02-15T09:22:57;12.60;99.90
18779;DHT22;9518;51.720;14.384;2024-02-15T09:25:37;12.80;99.90
18779;DHT22;9518;51.720;14.384;2024-02-15T09:28:06;12.80;99.90
18779;DHT22;9518;51.720;14.384;2024-02-15T09:30:33;12.70;99.90
18779;DHT22;9518;51.720;14.384;2024-02-15T09:33:01;12.60;99.90
18779;DHT22;9518;51.720;14.384;2024-02-15T09:35:30;12.50;99.90
18779;DHT22;9518;51.720;14.384;2024-02-15T09:37:57;12.60;99.90
18779;DHT22;9518;51.720;14.384;2024-02-15T09:40:25;12.70;99.90
18779;DHT22;9518;51.720;14.384;2024-02-15T09:42:54;12.80;99.90
18779;DHT22;9518;51.720;14.384;2024-02-15T09:45:23;12.90;99.90
18779;DHT22;9518;51.720;14.384;2024-02-15T09:47:50;13.00;99.90
18779;DHT22;9518;51.720;14.384;2024-02-15T09:50:18;13.00;99.90
18779;DHT22;9518;51.720;14.384;2024-02-15T09:52:49;13.20;99.90
18779;DHT22;9518;51.720;14.384;2024-02-15T09:55:16;13.40;99.90
18779;DHT22;9518;51.720;14.384;2024-02-15T09:57:45;13.60;99.90
18779;DHT22;9518;51.720;14.384;2024-02-15T10:00:14;13.50;99.90
18779;DHT22;9518;51.720;14.384;2024-02-15T10:02:46;13.40;99.90
18779;DHT22;9518;51.720;14.384;2024-02-15T10:05:13;13.50;99.90
18779;DHT22;9518;51.720;14.384;2024-02-15T10:07:41;13.70;99.90
18779;DHT22;9518;51.720;14.384;2024-02-15T10:10:17;13.70;99.90
18779;DHT22;9518;51.720;14.384;2024-02-15T10:12:45;13.70;99.90
18779;DHT22;9518;51.720;14.384;2024-02-15T10:15:31;13.70;99.90
18779;DHT22;9518;51.720;14.384;2024-02-15T10:18:01;13.80;99.90
18779;DHT22;9518;51.720;14.384;2024-02-15T10:20:37;13.80;99.90
18779;DHT22;9518;51.720;14.384;2024-02-15T10:23:11;13.90;99.90
18779;DHT22;9518;51.720;14.384;2024-02-15T10:25:39;13.90;99.90
18779;DHT22;9518;51.720;14.384;2024-02-15T10:28:07;14.10;99.90
18779;DHT22;9518;51.720;14.384;2024-02-15T10:30:35;14.20;99.90
18779;DHT22;9518;51.720;14.384;2024-02-15T10:33:04;14.40;99.90
18779;DHT22;9518;51.720;14.384;2024-02-15T10:35:31;14.50;99.90
18779;DHT22;9518;51.720;14.384;2024-02-15T10:38:10;14.40;99.90
18779;DHT22;9518;51.720;14.384;2024-02-15T10:40:39;14.60;99.90
18779;DHT22;9518;51.720;14.384;2024-02-15T10:43:09;14.60;99.90
18779;DHT22;9518;51.720;14.384;2024-02-15T10:45:39;14.70;99.90
18779;DHT22;9518;51.720;14.384;2024-02-15T10:48:09;14.70;99.90
18779;DHT22;9518;51.720;14.384;2024-02-15T10:50:39;14.60;99.90
18779;DHT22;9518;51.720;14.384;2024-02-15T10:53:11;14.70;99.90
18779;DHT22;9518;51.720;14.384;2024-02-15T10:55:48;14.80;99.90
18779;DHT22;9518;51.720;14.384;2024-02-15T10:58:20;14.90;99.90
18779;DHT22;9518;51.720;14.384;2024-02-15T11:00:50;14.90;99.90
18779;DHT22;9518;51.720;14.384;2024-02-15T11:03:25;14.70;99.90
18779;DHT22;9518;51.720;14.384;2024-02-15T11:06:00;14.50;99.90
18779;DHT22;9518;51.720;14.384;2024-02-15T11:08:28;14.40;99.90
18779;DHT22;9518;51.720;14.384;2024-02-15T11:10:55;14.40;99.90
18779;DHT22;9518;51.720;14.384;2024-02-15T11:13:24;14.40;99.90
18779;DHT22;9518;51.720;14.384;2024-02-15T11:15:53;14.70;99.90
18779;DHT22;9518;51.720;14.384;2024-02-15T11:18:45;15.00;99.90
18779;DHT22;9518;51.720;14.384;2024-02-15T11:21:15;15.00;99.90
18779;DHT22;9518;51.720;14.384;2024-02-15T11:23:44;15.00;99.90
18779;DHT22;9518;51.720;14.384;2024-02-15T11:26:45;15.00;99.90
18779;DHT22;9518;51.720;14.384;2024-02-15T11:29:49;15.20;99.90
18779;DHT22;9518;51.720;14.384;2024-02-15T11:32:47;15.50;99.90
18779;DHT22;9518;51.720;14.384;2024-02-15T11:35:17;15.30;99.90
18779;DHT22;9518;51.720;14.384;2024-02-15T11:37:53;15.00;99.90
18779;DHT22;9518;51.720;14.384;2024-02-15T11:40:23;14.80;99.90
18779;DHT22;9518;51.720;14.384;2024-02-15T11:42:53;14.70;99.90
18779;DHT22;9518;51.720;14.384;2024-02-15T11:45:20;14.80;99.90
18779;DHT22;9518;51.720;14.384;2024-02-15T11:47:49;15.00;99.90
18779;DHT22;9518;51.720;14.384;2024-02-15T11:50:20;15.10;99.90
18779;DHT22;9518;51.720;14.384;2024-02-15T11:52:48;15.00;99.90
18779;DHT22;9518;51.720;14.384;2024-02-15T11:55:19;14.90;99.90
18779;DHT22;9518;51.720;14.384;2024-02-15T11:57:56;14.80;99.90
18779;DHT22;9518;51.720;14.384;2024-02-15T12:00:28;14.80;99.90
18779;DHT22;9518;51.720;14.384;2024-02-15T12:03:14;14.80;99.90
18779;DHT22;9518;51.720;14.384;2024-02-15T12:06:00;14.80;99.90
18779;DHT22;9518;51.720;14.384;2024-02-15T12:08:47;14.90;99.90
18779;DHT22;9518;51.720;14.384;2024-02-15T12:11:32;15.00;99.90
18779;DHT22;9518;51.720;14.384;2024-02-15T12:14:17;15.00;99.90
18779;DHT22;9518;51.720;14.384;2024-02-15T12:17:02;15.20;99.90
18779;DHT22;9518;51.720;14.384;2024-02-15T12:19:49;15.50;99.90
18779;DHT22;9518;51.720;14.384;2024-02-15T12:22:20;15.70;99.90
18779;DHT22;9518;51.720;14.384;2024-02-15T12:24:58;16.00;99.90
18779;DHT22;9518;51.720;14.384;2024-02-15T12:27:27;15.90;99.90
18779;DHT22;9518;51.720;14.384;2024-02-15T12:29:55;15.70;99.90
18779;DHT22;9518;51.720;14.384;2024-02-15T12:32:26;15.80;99.90
18779;DHT22;9518;51.720;14.384;2024-02-15T12:35:09;15.90;99.90
18779;DHT22;9518;51.720;14.384;2024-02-15T12:37:40;15.90;99.90
18779;DHT22;9518;51.720;14.384;2024-02-15T12:40:11;15.90;99.90
18779;DHT22;9518;51.720;14.384;2024-02-15T12:42:41;15.60;99.90
18779;DHT22;9518;51.720;14.384;2024-02-15T12:45:15;15.50;99.90
18779;DHT22;9518;51.720;14.384;2024-02-15T12:47:47;15.20;99.90
18779;DHT22;9518;51.720;14.384;2024-02-15T12:50:15;15.10;99.90
18779;DHT22;9518;51.720;14.384;2024-02-15T12:52:45;15.00;99.90
18779;DHT22;9518;51.720;14.384;2024-02-15T12:55:16;14.90;99.90
18779;DHT22;9518;51.720;14.384;2024-02-15T12:57:47;14.90;99.90
18779;DHT22;9518;51.720;14.384;2024-02-15T13:00:18;14.90;99.90
18779;DHT22;9518;51.720;14.384;2024-02-15T13:02:46;14.90;99.90
18779;DHT22;9518;51.720;14.384;2024-02-15T13:05:14;14.80;99.90
18779;DHT22;9518;51.720;14.384;2024-02-15T13:07:46;14.70;99.90
18779;DHT22;9518;51.720;14.384;2024-02-15T13:10:13;14.70;99.90
18779;DHT22;9518;51.720;14.384;2024-02-15T13:12:41;14.90;99.90
18779;DHT22;9518;51.720;14.384;2024-02-15T13:15:10;14.90;99.90
18779;DHT22;9518;51.720;14.384;2024-02-15T13:17:42;14.80;99.90
18779;DHT22;9518;51.720;14.384;2024-02-15T13:20:10;14.70;99.90
18779;DHT22;9518;51.720;14.384;2024-02-15T13:22:39;14.60;99.90
18779;DHT22;9518;51.720;14.384;2024-02-15T13:25:09;14.50;99.90
18779;DHT22;9518;51.720;14.384;2024-02-15T13:27:37;14.60;99.90
18779;DHT22;9518;51.720;14.384;2024-02-15T13:30:05;14.50;99.90
18779;DHT22;9518;51.720;14.384;2024-02-15T13:32:35;14.50;99.90
18779;DHT22;9518;51.720;14.384;2024-02-15T13:35:05;14.60;99.90
18779;DHT22;9518;51.720;14.384;2024-02-15T13:37:40;14.80;99.90
18779;DHT22;9518;51.720;14.384;2024-02-15T13:40:12;14.90;99.90
18779;DHT22;9518;51.720;14.384;2024-02-15T13:42:42;15.00;99.90
18779;DHT22;9518;51.720;14.384;2024-02-15T13:45:15;14.90;99.90
18779;DHT22;9518;51.720;14.384;2024-02-15T13:47:44;14.90;99.90
18779;DHT22;9518;51.720;14.384;2024-02-15T13:50:13;14.80;99.90
18779;DHT22;9518;51.720;14.384;2024-02-15T13:52:42;14.70;99.90
18779;DHT22;9518;51.720;14.384;2024-02-15T13:55:12;14.70;99.90
18779;DHT22;9518;51.720;14.384;2024-02-15T13:57:40;14.70;99.90
18779;DHT22;9518;51.720;14.384;2024-02-15T14:00:09;14.70;99.90
18779;DHT22;9518;51.720;14.384;2024-02-15T14:02:40;14.70;99.90
18779;DHT22;9518;51.720;14.384;2024-02-15T14:05:09;14.80;99.90
18779;DHT22;9518;51.720;14.384;2024-02-15T14:07:38;14.90;99.90
18779;DHT22;9518;51.720;14.384;2024-02-15T14:10:06;14.80;99.90
18779;DHT22;9518;51.720;14.384;2024-02-15T14:12:34;14.70;99.90
18779;DHT22;9518;51.720;14.384;2024-02-15T14:15:03;14.70;99.90
18779;DHT22;9518;51.720;14.384;2024-02-15T14:17:31;14.60;99.90
18779;DHT22;9518;51.720;14.384;2024-02-15T14:19:58;14.50;99.90
18779;DHT22;9518;51.720;14.384;2024-02-15T14:22:26;14.50;99.90
18779;DHT22;9518;51.720;14.384;2024-02-15T14:24:55;14.50;99.90
18779;DHT22;9518;51.720;14.384;2024-02-15T14:27:22;14.50;99.90
18779;DHT22;9518;51.720;14.384;2024-02-15T14:29:51;14.50;99.90
18779;DHT22;9518;51.720;14.384;2024-02-15T14:32:35;14.60;99.90
18779;DHT22;9518;51.720;14.384;2024-02-15T14:35:19;14.50;99.90
18779;DHT22;9518;51.720;14.384;2024-02-15T14:37:47;14.40;99.90
18779;DHT22;9518;51.720;14.384;2024-02-15T14:40:14;14.40;99.90
18779;DHT22;9518;51.720;14.384;2024-02-15T14:42:42;14.30;99.90
18779;DHT22;9518;51.720;14.384;2024-02-15T14:45:12;14.30;99.90
18779;DHT22;9518;51.720;14.384;2024-02-15T14:47:39;14.40;99.90
18779;DHT22;9518;51.720;14.384;2024-02-15T14:50:08;14.30;99.90
18779;DHT22;9518;51.720;14.384;2024-02-15T14:52:38;14.40;99.90
18779;DHT22;9518;51.720;14.384;2024-02-15T14:55:06;14.40;99.90
18779;DHT22;9518;51.720;14.384;2024-02-15T14:57:34;14.30;99.90
18779;DHT22;9518;51.720;14.384;2024-02-15T15:00:04;14.10;99.90
18779;DHT22;9518;51.720;14.384;2024-02-15T15:02:37;14.00;99.90
18779;DHT22;9518;51.720;14.384;2024-02-15T15:05:06;13.90;99.90
18779;DHT22;9518;51.720;14.384;2024-02-15T15:07:50;13.90;99.90
18779;DHT22;9518;51.720;14.384;2024-02-15T15:10:34;13.90;99.90
18779;DHT22;9518;51.720;14.384;2024-02-15T15:13:19;13.90;99.90
18779;DHT22;9518;51.720;14.384;2024-02-15T15:15:48;13.80;99.90
18779;DHT22;9518;51.720;14.384;2024-02-15T15:18:16;13.70;99.90
18779;DHT22;9518;51.720;14.384;2024-02-15T15:20:45;13.60;99.90
18779;DHT22;9518;51.720;14.384;2024-02-15T15:23:12;13.60;99.90
18779;DHT22;9518;51.720;14.384;2024-02-15T15:25:41;13.50;99.90
18779;DHT22;9518;51.720;14.384;2024-02-15T15:28:08;13.50;99.90
18779;DHT22;9518;51.720;14.384;2024-02-15T15:30:35;13.50;99.90
18779;DHT22;9518;51.720;14.384;2024-02-15T15:33:03;13.40;99.90
18779;DHT22;9518;51.720;14.384;2024-02-15T15:35:32;13.40;99.90
18779;DHT22;9518;51.720;14.384;2024-02-15T15:38:00;13.30;99.90
18779;DHT22;9518;51.720;14.384;2024-02-15T15:40:27;13.20;99.90
18779;DHT22;9518;51.720;14.384;2024-02-15T15:42:54;13.10;99.90
18779;DHT22;9518;51.720;14.384;2024-02-15T15:45:21;13.00;99.90
18779;DHT22;9518;51.720;14.384;2024-02-15T15:47:49;13.00;99.90
18779;DHT22;9518;51.720;14.384;2024-02-15T15:50:17;12.90;99.90
18779;DHT22;9518;51.720;14.384;2024-02-15T15:52:46;12.80;99.90